Time;durP1;ratioP1;P1;durP2;ratioP2;P2;SDS_P1;SDS_P2;PMS_P1;PMS_P2;Temp;Humidity;BMP_temperature;BMP_pressure;BME280_temperature;BME280_humidity;BME280_pressure;Samples;Min_cycle;Max_cycle;Signal;HPM_P1;HPM_P2
2023/05/15 00:00:15;;;;;;;25.10;19.10;;;;;;;13.66;81.75;101214.03;4996674;28;20049;-75
2023/05/15 00:02:43;;;;;;;25.38;20.08;;;;;;;13.24;84.10;101202.53;4996251;28;20049;-74
2023/05/15 00:05:12;;;;;;;22.98;18.75;;;;;;;13.39;84.84;101198.47;5014189;28;20050;-74
2023/05/15 00:07:40;;;;;;;22.00;19.45;;;;;;;13.62;84.11;101190.91;5013387;28;20068;-75
2023/05/15 00:10:08;;;;;;;23.95;20.80;;;;;;;13.54;83.30;101189.75;5014181;28;20061;-74
2023/05/15 00:12:35;;;;;;;24.80;21.60;;;;;;;13.38;84.58;101194.09;5029526;28;20048;-73
2023/05/15 00:15:03;;;;;;;26.88;22.17;;;;;;;13.09;86.09;101196.59;5016193;28;20046;-66
2023/05/15 00:17:30;;;;;;;27.27;23.02;;;;;;;13.25;85.88;101187.53;5020297;28;20053;-66
2023/05/15 00:19:59;;;;;;;28.13;24.02;;;;;;;13.05;86.51;101190.06;5001978;28;20397;-66
2023/05/15 00:22:26;;;;;;;29.35;24.23;;;;;;;13.17;86.69;101182.81;5019087;28;20080;-66
2023/05/15 00:24:54;;;;;;;29.13;24.38;;;;;;;13.39;85.69;101182.72;5020154;28;20149;-66
2023/05/15 00:27:21;;;;;;;30.58;25.33;;;;;;;13.28;85.55;101184.16;5020619;28;20056;-65
2023/05/15 00:29:48;;;;;;;31.08;26.70;;;;;;;12.88;88.24;101190.78;5018196;28;20481;-66
2023/05/15 00:32:16;;;;;;;34.78;26.38;;;;;;;13.22;87.04;101184.59;5018826;28;20054;-67
2023/05/15 00:34:44;;;;;;;35.47;25.85;;;;;;;13.31;86.88;101177.97;5020410;28;20498;-67
2023/05/15 00:37:11;;;;;;;34.90;25.52;;;;;;;13.23;85.32;101187.03;5020266;28;20057;-65
2023/05/15 00:39:38;;;;;;;33.40;26.70;;;;;;;13.00;87.45;101177.16;5019166;28;20544;-66
2023/05/15 00:42:07;;;;;;;36.40;28.45;;;;;;;13.19;87.14;101172.25;4998711;28;20054;-65
2023/05/15 00:44:34;;;;;;;32.20;26.45;;;;;;;13.39;85.97;101163.34;5002355;28;20046;-67
2023/05/15 00:47:02;;;;;;;35.78;28.52;;;;;;;13.34;85.96;101157.13;5034853;28;20533;-66
2023/05/15 00:49:31;;;;;;;43.50;28.98;;;;;;;13.28;85.73;101158.44;5019476;28;20041;-66
2023/05/15 00:52:02;;;;;;;37.90;30.75;;;;;;;13.11;86.81;101159.16;5018522;28;20050;-65
2023/05/15 00:54:29;;;;;;;40.85;32.25;;;;;;;13.07;87.25;101169.25;5015776;28;20053;-66
2023/05/15 00:56:58;;;;;;;40.88;31.83;;;;;;;12.78;88.94;101162.59;5018705;28;20046;-66
2023/05/15 00:59:27;;;;;;;42.65;33.70;;;;;;;12.77;89.25;101161.75;5019299;28;20049;-74
2023/05/15 01:01:54;;;;;;;47.15;32.70;;;;;;;12.91;88.94;101158.88;5019209;28;20069;-74
2023/05/15 01:04:22;;;;;;;44.85;33.65;;;;;;;12.75;90.01;101157.66;5018712;28;20058;-73
2023/05/15 01:06:52;;;;;;;42.30;32.78;;;;;;;13.00;89.74;101157.81;5020041;28;20049;-74
2023/05/15 01:09:22;;;;;;;42.97;34.60;;;;;;;12.84;88.04;101169.59;5002759;28;20524;-74
2023/05/15 01:11:53;;;;;;;42.15;34.20;;;;;;;12.60;90.25;101172.72;5011709;28;20080;-73
2023/05/15 01:14:20;;;;;;;42.50;34.08;;;;;;;12.84;90.16;101162.13;5002244;28;20050;-65
2023/05/15 01:16:47;;;;;;;43.33;33.38;;;;;;;12.77;89.64;101164.53;5009100;28;20054;-65
2023/05/15 01:19:15;;;;;;;44.85;34.83;;;;;;;12.75;89.46;101157.66;5019641;28;20057;-66
2023/05/15 01:21:48;;;;;;;45.22;34.58;;;;;;;12.51;90.41;101157.19;5018475;28;20054;-65
2023/05/15 01:24:42;;;;;;;44.10;34.03;;;;;;;12.31;92.27;101158.53;5019731;28;20061;-66
2023/05/15 01:27:23;;;;;;;42.25;33.75;;;;;;;12.15;92.44;101157.28;5014294;28;20054;-66
2023/05/15 01:29:59;;;;;;;43.28;34.15;;;;;;;12.19;93.71;101164.63;5015078;28;20045;-65
2023/05/15 01:32:38;;;;;;;42.10;33.38;;;;;;;12.10;94.05;101154.66;4985406;28;20053;-66
2023/05/15 01:35:22;;;;;;;47.80;33.08;;;;;;;12.30;92.94;101166.00;5010972;28;20053;-66
2023/05/15 01:37:54;;;;;;;40.75;33.00;;;;;;;12.20;93.77;101166.25;5026257;28;20050;-66
2023/05/15 01:40:23;;;;;;;42.25;33.25;;;;;;;12.46;91.94;101166.44;5015193;28;20073;-65
2023/05/15 01:42:54;;;;;;;45.28;33.22;;;;;;;12.15;92.70;101171.09;5015085;28;20069;-75
2023/05/15 01:45:23;;;;;;;40.88;33.13;;;;;;;12.38;92.75;101167.19;5016655;28;20053;-74
2023/05/15 01:47:52;;;;;;;47.58;36.90;;;;;;;12.00;92.67;101163.97;4999527;28;20042;-74
2023/05/15 01:50:21;;;;;;;56.33;37.83;;;;;;;11.49;96.27;101176.44;4999168;28;20053;-74
2023/05/15 01:52:55;;;;;;;54.20;38.55;;;;;;;11.40;97.31;101170.00;4982967;28;20057;-73
2023/05/15 01:55:26;;;;;;;48.97;37.90;;;;;;;11.57;97.84;101165.50;4999227;28;20061;-74
2023/05/15 01:57:55;;;;;;;52.83;38.25;;;;;;;11.75;96.35;101163.75;5015472;28;20053;-74
2023/05/15 02:00:23;;;;;;;46.05;36.65;;;;;;;11.78;96.22;101171.41;5016246;28;20764;-74
2023/05/15 02:02:51;;;;;;;52.67;38.95;;;;;;;11.56;97.82;101174.88;4998182;28;20057;-73
2023/05/15 02:05:19;;;;;;;50.42;38.72;;;;;;;11.64;96.14;101167.81;5014856;28;20058;-73
2023/05/15 02:07:47;;;;;;;53.20;39.50;;;;;;;11.38;98.92;101167.56;5016188;28;20093;-73
2023/05/15 02:10:15;;;;;;;56.25;41.00;;;;;;;11.37;99.23;101173.38;5015564;28;20050;-73
2023/05/15 02:12:46;;;;;;;54.17;40.92;;;;;;;11.14;100.00;101172.47;5016063;28;20053;-74
2023/05/15 02:15:16;;;;;;;60.58;42.65;;;;;;;10.96;100.00;101167.88;4998906;28;20053;-73
2023/05/15 02:17:46;;;;;;;60.95;42.55;;;;;;;10.94;100.00;101165.41;5014918;28;20053;-73
2023/05/15 02:20:13;;;;;;;54.95;40.22;;;;;;;11.16;100.00;101168.28;4996180;28;20065;-66
2023/05/15 02:22:40;;;;;;;64.72;41.90;;;;;;;10.92;100.00;101164.91;5030240;28;20053;-65
2023/05/15 02:25:08;;;;;;;60.17;42.50;;;;;;;10.85;100.00;101170.00;5016064;28;20057;-74
2023/05/15 02:27:56;;;;;;;60.95;43.22;;;;;;;10.70;100.00;101169.44;4998436;28;20042;-74
2023/05/15 02:31:00;;;;;;;56.33;41.05;;;;;;;10.85;100.00;101167.22;4998145;28;20405;-73
2023/05/15 02:33:36;;;;;;;58.60;40.78;;;;;;;11.26;100.00;101170.81;4966645;28;20058;-66
2023/05/15 02:36:08;;;;;;;54.85;39.67;;;;;;;10.96;98.72;101165.94;5013848;28;20054;-65
2023/05/15 02:38:51;;;;;;;61.78;42.38;;;;;;;10.79;100.00;101168.44;4980926;28;20669;-65
2023/05/15 02:41:20;;;;;;;59.33;40.60;;;;;;;10.92;100.00;101153.03;5014274;28;20050;-66
2023/05/15 02:43:49;;;;;;;56.05;39.78;;;;;;;11.05;100.00;101157.75;5015035;28;20057;-66
2023/05/15 02:46:20;;;;;;;58.27;40.87;;;;;;;11.13;98.82;101151.53;5014251;28;20054;-65
2023/05/15 02:48:48;;;;;;;55.40;40.03;;;;;;;11.03;97.77;101151.75;4997829;28;20054;-73
2023/05/15 02:51:15;;;;;;;58.33;39.50;;;;;;;11.26;97.66;101161.75;5014766;28;20397;-74
2023/05/15 02:53:43;;;;;;;58.50;40.83;;;;;;;11.41;97.43;101155.09;5013221;28;20062;-65
2023/05/15 02:56:10;;;;;;;58.78;39.40;;;;;;;11.33;96.90;101146.41;4981761;28;20050;-65
2023/05/15 02:58:38;;;;;;;61.83;40.15;;;;;;;11.33;96.05;101156.66;5015040;28;20087;-65
2023/05/15 03:01:05;;;;;;;59.83;40.70;;;;;;;11.31;95.79;101156.13;5013670;28;20046;-66
2023/05/15 03:03:33;;;;;;;60.08;40.38;;;;;;;11.10;97.23;101147.47;4997711;28;20130;-66
2023/05/15 03:06:00;;;;;;;58.53;39.60;;;;;;;11.35;97.46;101144.16;5013207;28;20061;-66
2023/05/15 03:08:28;;;;;;;59.92;40.13;;;;;;;11.29;96.36;101145.41;5000608;28;20069;-65
2023/05/15 03:10:58;;;;;;;61.30;40.50;;;;;;;10.98;97.19;101152.63;4981772;28;20054;-66
2023/05/15 03:13:25;;;;;;;61.95;40.60;;;;;;;11.04;98.27;101153.34;4993219;28;20058;-66
2023/05/15 03:15:52;;;;;;;61.17;40.78;;;;;;;11.04;98.33;101147.84;4995376;28;20050;-64
2023/05/15 03:18:20;;;;;;;62.53;39.88;;;;;;;11.26;97.04;101146.00;5024861;28;20057;-65
2023/05/15 03:20:48;;;;;;;64.07;40.47;;;;;;;11.35;96.48;101152.44;5009422;28;20050;-66
2023/05/15 03:23:16;;;;;;;58.60;39.88;;;;;;;10.80;98.15;101148.03;5004471;28;20049;-65
2023/05/15 03:25:43;;;;;;;63.50;40.65;;;;;;;10.43;100.00;101150.09;4996206;28;20061;-66
2023/05/15 03:28:11;;;;;;;70.93;42.67;;;;;;;10.42;100.00;101148.47;5013584;28;20049;-66
2023/05/15 03:30:42;;;;;;;64.72;42.22;;;;;;;10.27;100.00;101148.75;5014175;28;20061;-66
2023/05/15 03:33:09;;;;;;;62.47;41.63;;;;;;;10.06;100.00;101159.19;5014038;28;20413;-65
2023/05/15 03:35:36;;;;;;;63.38;42.25;;;;;;;10.10;100.00;101143.78;5029499;28;20056;-64
2023/05/15 03:38:04;;;;;;;62.33;40.95;;;;;;;10.26;100.00;101142.41;5014484;28;20061;-65
2023/05/15 03:40:31;;;;;;;65.88;41.45;;;;;;;10.10;100.00;101141.00;5014336;28;20049;-65
2023/05/15 03:42:59;;;;;;;63.78;40.58;;;;;;;10.01;100.00;101153.78;5028621;28;20053;-65
2023/05/15 03:45:26;;;;;;;60.78;41.20;;;;;;;10.04;100.00;101137.50;5011899;28;20060;-65
2023/05/15 03:47:54;;;;;;;61.13;41.40;;;;;;;10.19;100.00;101137.28;5013275;28;20057;-66
2023/05/15 03:50:22;;;;;;;59.70;39.08;;;;;;;10.40;100.00;101142.44;4996123;28;20057;-66
2023/05/15 03:52:50;;;;;;;55.50;37.83;;;;;;;10.45;100.00;101147.84;4996477;28;20508;-65
2023/05/15 03:55:18;;;;;;;57.85;39.00;;;;;;;10.83;99.29;101138.34;4996687;28;20076;-66
2023/05/15 03:57:45;;;;;;;59.72;40.33;;;;;;;10.56;98.23;101139.13;5013842;28;20061;-64
2023/05/15 04:00:13;;;;;;;59.60;38.63;;;;;;;10.46;99.53;101142.03;5029397;28;20053;-65
2023/05/15 04:02:44;;;;;;;58.85;39.25;;;;;;;10.23;100.00;101147.69;5013862;28;20109;-65
2023/05/15 04:05:11;;;;;;;62.80;40.35;;;;;;;10.10;100.00;101155.59;5012429;28;20540;-65
2023/05/15 04:07:38;;;;;;;63.97;41.22;;;;;;;9.82;100.00;101152.97;4979450;28;20556;-66
2023/05/15 04:10:07;;;;;;;63.50;41.38;;;;;;;10.10;100.00;101146.53;5014046;28;20058;-65
2023/05/15 04:12:35;;;;;;;60.10;37.58;;;;;;;9.90;100.00;101144.06;5027929;28;20076;-65
2023/05/15 04:15:18;;;;;;;62.30;39.72;;;;;;;9.78;100.00;101158.25;5013122;28;20073;-65
2023/05/15 04:17:47;;;;;;;59.70;37.60;;;;;;;9.97;100.00;101158.28;5013463;28;20054;-65
2023/05/15 04:20:17;;;;;;;60.90;40.08;;;;;;;9.99;100.00;101161.50;5012523;28;20053;-65
2023/05/15 04:22:44;;;;;;;63.58;40.72;;;;;;;9.81;100.00;101152.19;5014002;28;20056;-66
2023/05/15 04:25:16;;;;;;;61.58;39.42;;;;;;;9.91;100.00;101157.53;5013907;28;20042;-65
2023/05/15 04:27:44;;;;;;;62.13;38.70;;;;;;;10.01;100.00;101154.59;5013865;28;20045;-66
2023/05/15 04:30:12;;;;;;;61.05;38.83;;;;;;;10.05;100.00;101160.34;5011849;28;20060;-65
2023/05/15 04:32:39;;;;;;;58.80;38.38;;;;;;;10.02;100.00;101152.69;5013855;28;20042;-66
2023/05/15 04:35:09;;;;;;;61.33;39.13;;;;;;;10.06;100.00;101162.78;4995457;28;20058;-66
2023/05/15 04:37:37;;;;;;;62.97;40.05;;;;;;;9.78;100.00;101158.25;5006681;28;20061;-65
2023/05/15 04:40:06;;;;;;;66.28;39.67;;;;;;;9.89;100.00;101153.41;5013879;28;20061;-65
2023/05/15 04:42:34;;;;;;;59.08;38.92;;;;;;;10.16;100.00;101159.91;5014324;28;20057;-66
2023/05/15 04:45:02;;;;;;;61.22;36.40;;;;;;;9.96;100.00;101146.44;5012218;28;20054;-64
2023/05/15 04:47:29;;;;;;;58.72;36.20;;;;;;;10.05;100.00;101146.56;5013303;28;20054;-65
2023/05/15 04:49:56;;;;;;;61.35;37.42;;;;;;;9.91;100.00;101148.44;5011585;28;20153;-64
2023/05/15 04:52:24;;;;;;;59.35;37.17;;;;;;;10.20;100.00;101147.19;5013309;28;20045;-64
2023/05/15 04:54:54;;;;;;;57.97;35.53;;;;;;;10.36;100.00;101142.22;5011288;28;20058;-65
2023/05/15 04:57:21;;;;;;;59.20;37.08;;;;;;;10.58;98.62;101133.31;5012815;28;20054;-64
2023/05/15 04:59:49;;;;;;;57.20;36.05;;;;;;;10.50;97.33;101148.59;5012497;28;20058;-64
2023/05/15 05:02:22;;;;;;;60.17;37.03;;;;;;;10.36;97.77;101146.91;5014366;28;20042;-64
2023/05/15 05:04:50;;;;;;;59.78;35.97;;;;;;;9.82;99.96;101144.72;5015625;28;20057;-66
2023/05/15 05:07:17;;;;;;;62.60;37.13;;;;;;;9.95;100.00;101142.06;4998419;28;20458;-65
2023/05/15 05:09:45;;;;;;;59.67;36.47;;;;;;;10.29;100.00;101144.56;4993018;28;20073;-66
2023/05/15 05:12:13;;;;;;;56.35;36.42;;;;;;;10.59;100.00;101135.75;5013906;28;20053;-66
2023/05/15 05:14:43;;;;;;;56.22;34.50;;;;;;;10.44;97.68;101137.97;5017042;28;20077;-66
2023/05/15 05:17:10;;;;;;;58.47;36.15;;;;;;;10.34;99.62;101138.94;5017066;28;20054;-65
2023/05/15 05:19:38;;;;;;;61.25;35.17;;;;;;;10.42;100.00;101138.28;4995367;28;20065;-66
2023/05/15 05:22:06;;;;;;;60.05;34.60;;;;;;;10.32;99.83;101141.19;5008842;28;20038;-65
2023/05/15 05:24:36;;;;;;;66.25;35.85;;;;;;;9.87;100.00;101144.66;5030906;28;20064;-65
2023/05/15 05:27:04;;;;;;;59.10;35.20;;;;;;;9.85;100.00;101144.94;5015242;28;20076;-66
2023/05/15 05:29:32;;;;;;;58.30;34.92;;;;;;;10.09;100.00;101140.19;5016696;28;20057;-65
2023/05/15 05:31:59;;;;;;;61.17;36.83;;;;;;;10.18;100.00;101141.16;4999594;28;20049;-65
2023/05/15 05:34:27;;;;;;;55.65;34.47;;;;;;;10.49;100.00;101143.38;4999457;28;20496;-67
2023/05/15 05:36:54;;;;;;;59.17;36.17;;;;;;;10.52;100.00;101140.03;5014793;28;20061;-68
2023/05/15 05:39:21;;;;;;;55.85;34.72;;;;;;;10.55;100.00;101136.69;5031810;28;20061;-65
2023/05/15 05:41:48;;;;;;;57.85;34.97;;;;;;;10.55;100.00;101144.94;5016741;28;20613;-67
2023/05/15 05:44:16;;;;;;;60.80;35.85;;;;;;;10.32;100.00;101149.44;5016322;28;20493;-66
2023/05/15 05:46:44;;;;;;;62.83;37.53;;;;;;;10.33;100.00;101151.09;5015729;28;20058;-66
2023/05/15 05:49:11;;;;;;;60.45;37.10;;;;;;;10.60;100.00;101151.16;5014757;28;20056;-67
2023/05/15 05:51:39;;;;;;;63.97;36.65;;;;;;;10.52;100.00;101148.28;5016503;28;20429;-66
2023/05/15 05:54:06;;;;;;;65.20;36.90;;;;;;;10.41;100.00;101144.09;5016035;28;20054;-65
2023/05/15 05:56:33;;;;;;;66.15;37.40;;;;;;;10.50;100.00;101145.84;5007533;28;20054;-66
2023/05/15 05:59:01;;;;;;;73.55;40.30;;;;;;;10.30;100.00;101145.38;5015753;28;20056;-65
2023/05/15 06:01:28;;;;;;;71.35;38.97;;;;;;;10.16;100.00;101148.09;5014782;28;20053;-65
2023/05/15 06:03:56;;;;;;;75.53;40.13;;;;;;;10.39;100.00;101141.63;5014809;28;20053;-66
2023/05/15 06:06:24;;;;;;;75.68;40.50;;;;;;;10.45;100.00;101151.44;5015730;28;20050;-65
2023/05/15 06:08:51;;;;;;;78.35;40.75;;;;;;;10.58;100.00;101144.34;4998685;28;20053;-66
2023/05/15 06:11:22;;;;;;;78.43;42.35;;;;;;;10.58;100.00;101155.34;5016078;28;20054;-66
2023/05/15 06:13:52;;;;;;;81.03;42.80;;;;;;;10.70;100.00;101159.25;5015131;28;20053;-65
2023/05/15 06:16:20;;;;;;;79.13;42.40;;;;;;;10.66;100.00;101157.41;5016232;28;20057;-64
2023/05/15 06:18:47;;;;;;;85.22;44.17;;;;;;;10.68;100.00;101155.16;5014903;28;20065;-64
2023/05/15 06:21:15;;;;;;;82.43;42.70;;;;;;;10.75;100.00;101159.16;4998099;28;20054;-64
2023/05/15 06:23:42;;;;;;;80.93;42.75;;;;;;;10.69;100.00;101156.78;5015632;28;20485;-65
2023/05/15 06:26:10;;;;;;;80.30;43.80;;;;;;;10.93;100.00;101162.97;5015660;28;20057;-66
2023/05/15 06:28:37;;;;;;;90.00;44.08;;;;;;;10.93;100.00;101168.47;4997227;28;20494;-67
2023/05/15 06:31:04;;;;;;;79.35;43.97;;;;;;;10.95;100.00;101171.72;5014676;28;20038;-67
2023/05/15 06:33:32;;;;;;;70.50;41.47;;;;;;;10.95;100.00;101167.03;5014751;28;20056;-64
2023/05/15 06:36:00;;;;;;;72.00;41.30;;;;;;;11.25;100.00;101166.44;5000825;28;20038;-65
2023/05/15 06:38:28;;;;;;;66.93;37.35;;;;;;;11.31;100.00;101162.44;5008810;28;20489;-64
2023/05/15 06:40:55;;;;;;;65.47;38.33;;;;;;;11.55;100.00;101169.69;5009965;28;20053;-65
2023/05/15 06:43:22;;;;;;;60.65;35.90;;;;;;;11.70;100.00;101172.16;5013320;28;20049;-68
2023/05/15 06:45:50;;;;;;;59.42;36.95;;;;;;;11.90;100.00;101161.47;5024151;28;20064;-65
2023/05/15 06:48:17;;;;;;;58.53;35.20;;;;;;;11.89;100.00;101159.03;5012421;28;20415;-65
2023/05/15 06:50:44;;;;;;;58.03;36.30;;;;;;;11.40;100.00;101165.31;5015034;28;20054;-64
2023/05/15 06:53:12;;;;;;;60.58;36.40;;;;;;;11.49;100.00;101168.16;5012412;28;20045;-64
2023/05/15 06:55:40;;;;;;;56.72;35.92;;;;;;;11.62;100.00;101159.88;5005873;28;20061;-65
2023/05/15 06:58:08;;;;;;;58.17;35.25;;;;;;;11.92;100.00;101161.16;5018943;28;20038;-64
2023/05/15 07:00:35;;;;;;;53.10;33.03;;;;;;;11.63;100.00;101160.69;5020848;28;20493;-65
2023/05/15 07:03:02;;;;;;;57.15;34.17;;;;;;;11.47;100.00;101167.66;5022016;28;20048;-64
2023/05/15 07:05:30;;;;;;;61.58;35.85;;;;;;;11.55;100.00;101167.75;5023304;28;20045;-65
2023/05/15 07:07:57;;;;;;;59.25;33.67;;;;;;;11.94;100.00;101161.66;4980912;28;20057;-65
2023/05/15 07:10:24;;;;;;;54.20;31.50;;;;;;;11.89;100.00;101159.03;5002255;28;20064;-65
2023/05/15 07:12:53;;;;;;;57.90;33.72;;;;;;;11.86;100.00;101165.13;5017718;28;20057;-64
2023/05/15 07:15:20;;;;;;;54.63;32.28;;;;;;;11.85;100.00;101160.75;5023952;28;20473;-65
2023/05/15 07:17:48;;;;;;;51.38;31.88;;;;;;;11.93;100.00;101158.06;5009913;28;20524;-65
2023/05/15 07:20:15;;;;;;;52.00;31.88;;;;;;;12.15;99.93;101152.56;5010723;28;20054;-65
2023/05/15 07:22:43;;;;;;;54.05;31.58;;;;;;;12.18;97.53;101157.47;4996092;28;20057;-66
2023/05/15 07:25:22;;;;;;;49.65;30.23;;;;;;;11.98;99.41;101157.13;5012409;28;20065;-65
2023/05/15 07:27:51;;;;;;;52.03;30.55;;;;;;;12.20;100.00;101149.66;5012708;28;20061;-65
2023/05/15 07:30:18;;;;;;;51.17;29.52;;;;;;;12.42;98.78;101155.22;4976951;28;20077;-65
2023/05/15 07:32:46;;;;;;;51.72;29.73;;;;;;;12.37;97.69;101155.34;5027385;28;20061;-64
2023/05/15 07:35:13;;;;;;;49.95;28.77;;;;;;;12.37;96.81;101154.53;5013973;28;20050;-66
2023/05/15 07:37:40;;;;;;;53.08;29.88;;;;;;;12.42;98.46;101151.63;4990128;28;20049;-67
2023/05/15 07:40:08;;;;;;;46.90;28.33;;;;;;;12.47;97.76;101154.25;5013400;28;20467;-68
2023/05/15 07:42:35;;;;;;;49.70;28.73;;;;;;;12.10;97.96;101149.13;5010241;28;20050;-68
2023/05/15 07:45:03;;;;;;;54.10;29.88;;;;;;;12.00;100.00;101152.94;4995703;28;20060;-68
2023/05/15 07:47:31;;;;;;;54.60;30.08;;;;;;;12.20;100.00;101155.19;5012708;28;20046;-67
2023/05/15 07:49:58;;;;;;;51.33;29.95;;;;;;;12.31;99.69;101155.75;5017810;28;20045;-67
2023/05/15 07:52:25;;;;;;;54.65;30.75;;;;;;;11.98;100.00;101165.41;5014376;28;20053;-68
2023/05/15 07:54:52;;;;;;;56.75;31.38;;;;;;;12.14;100.00;101155.63;5016389;28;20417;-67
2023/05/15 07:57:20;;;;;;;56.08;30.13;;;;;;;12.39;100.00;101155.84;5018877;28;20057;-66
2023/05/15 07:59:47;;;;;;;49.20;29.33;;;;;;;12.87;98.19;101153.19;5015151;28;20058;-67
2023/05/15 08:02:14;;;;;;;52.90;29.38;;;;;;;13.05;96.49;101163.22;5013623;28;20049;-67
2023/05/15 08:04:44;;;;;;;51.67;29.30;;;;;;;12.81;94.76;101165.53;5004956;28;20062;-68
2023/05/15 08:07:12;;;;;;;55.53;30.70;;;;;;;12.74;97.13;101147.75;5010545;28;20068;-69
2023/05/15 08:09:40;;;;;;;52.20;30.52;;;;;;;12.98;94.93;101157.31;5021663;28;20049;-69
2023/05/15 08:12:19;;;;;;;50.33;31.02;;;;;;;13.07;94.59;101158.19;5013392;28;20058;-65
2023/05/15 08:14:50;;;;;;;54.22;30.77;;;;;;;12.60;95.99;101167.19;5011107;28;20046;-65
2023/05/15 08:17:17;;;;;;;;;;;;;;;12.44;97.98;101163.19;4997575;28;20050;-65
2023/05/15 08:19:45;;;;;;;54.78;31.52;;;;;;;12.62;98.61;101159.41;5003605;28;19925;-65
2023/05/15 08:22:13;;;;;;;59.70;32.58;;;;;;;12.56;98.60;101163.41;5003114;28;20060;-65
2023/05/15 08:24:41;;;;;;;60.10;33.85;;;;;;;12.59;98.50;101157.25;5002018;28;20049;-66
2023/05/15 08:27:08;;;;;;;62.97;33.40;;;;;;;12.56;97.59;101165.34;5022159;28;20049;-65
2023/05/15 08:29:36;;;;;;;61.20;34.17;;;;;;;12.46;99.18;101152.63;5025504;28;20053;-65
2023/05/15 08:32:07;;;;;;;60.60;34.67;;;;;;;12.59;99.47;101150.94;5021046;28;20069;-65
2023/05/15 08:34:35;;;;;;;56.27;32.80;;;;;;;12.79;97.97;101153.16;5021228;28;20042;-66
2023/05/15 08:37:03;;;;;;;58.50;33.15;;;;;;;12.74;97.37;101150.53;5003557;28;20660;-67
2023/05/15 08:39:31;;;;;;;58.58;32.60;;;;;;;12.67;97.36;101148.22;5006902;28;20054;-67
2023/05/15 08:42:27;;;;;;;60.67;33.15;;;;;;;12.78;96.53;101141.25;5005570;28;20057;-68
2023/05/15 08:44:54;;;;;;;59.42;33.45;;;;;;;12.74;96.08;101137.53;5011902;28;20631;-68
2023/05/15 08:47:22;;;;;;;60.00;33.50;;;;;;;12.90;95.87;101135.94;5010921;28;20046;-68
2023/05/15 08:49:52;;;;;;;63.70;34.88;;;;;;;13.23;95.09;101134.47;5022889;28;20057;-65
2023/05/15 08:52:20;;;;;;;60.58;34.53;;;;;;;13.01;94.06;101137.31;5028286;28;20800;-67
2023/05/15 08:54:47;;;;;;;58.88;34.63;;;;;;;13.20;95.44;101131.53;5027034;28;20071;-69
2023/05/15 08:57:15;;;;;;;64.07;35.83;;;;;;;13.12;94.53;101133.16;5027076;28;20053;-68
2023/05/15 08:59:43;;;;;;;64.95;36.15;;;;;;;13.39;94.06;101141.19;5028600;28;20536;-69
2023/05/15 09:02:11;;;;;;;61.75;35.70;;;;;;;13.39;92.55;101138.44;5025353;28;20404;-67
2023/05/15 09:04:38;;;;;;;61.65;35.17;;;;;;;13.56;91.18;101138.47;4995526;28;20434;-67
2023/05/15 09:07:06;;;;;;;59.13;34.80;;;;;;;13.58;91.77;101140.94;5000270;28;20046;-65
2023/05/15 09:09:34;;;;;;;61.30;35.45;;;;;;;13.76;91.07;101138.97;5009182;28;20512;-66
2023/05/15 09:12:02;;;;;;;65.47;36.47;;;;;;;13.71;89.96;101139.97;5017017;28;20053;-66
2023/05/15 09:14:30;;;;;;;65.63;36.55;;;;;;;14.21;88.81;101129.22;5022059;28;20056;-66
2023/05/15 09:16:58;;;;;;;70.82;36.55;;;;;;;13.88;88.52;101125.34;5029108;28;20056;-66
2023/05/15 09:19:25;;;;;;;64.07;37.42;;;;;;;14.07;87.46;101136.91;5006806;28;20164;-66
2023/05/15 09:21:53;;;;;;;59.75;36.03;;;;;;;14.09;87.02;101134.59;5027987;28;20049;-65
2023/05/15 09:24:22;;;;;;;68.22;38.40;;;;;;;14.01;88.18;101125.16;5016278;28;20056;-67
2023/05/15 09:27:01;;;;;;;64.32;38.80;;;;;;;14.35;86.94;101130.69;5007365;28;20064;-66
2023/05/15 09:29:30;;;;;;;63.90;37.72;;;;;;;14.51;85.65;101117.13;5027076;28;20224;-66
2023/05/15 09:32:02;;;;;;;61.55;37.38;;;;;;;14.17;85.59;101128.25;5001726;28;20625;-66
2023/05/15 09:34:30;;;;;;;65.78;37.53;;;;;;;14.05;86.73;101125.31;5010636;28;20049;-67
2023/05/15 09:37:00;;;;;;;62.72;37.65;;;;;;;13.93;87.39;101125.97;4983382;28;20099;-67
2023/05/15 09:39:27;;;;;;;64.68;36.45;;;;;;;14.34;86.04;101114.41;5016653;28;20052;-68
2023/05/15 09:42:05;;;;;;;61.63;37.05;;;;;;;14.42;84.49;101121.88;5020599;28;20046;-67
2023/05/15 09:44:34;;;;;;;63.27;37.73;;;;;;;14.27;85.79;101117.69;4972001;28;20058;-68
2023/05/15 09:47:04;;;;;;;63.60;35.50;;;;;;;14.76;84.11;101113.47;5020584;28;20056;-69
2023/05/15 09:49:31;;;;;;;;;;;;;;;14.71;82.80;101119.19;5021117;28;20050;-68
2023/05/15 09:52:00;;;;;;;65.45;36.53;;;;;;;14.19;85.11;101118.44;5011305;28;19939;-68
2023/05/15 09:54:30;;;;;;;66.43;36.90;;;;;;;14.08;86.22;101124.66;4984642;28;20046;-67
2023/05/15 09:57:07;;;;;;;61.15;35.47;;;;;;;14.43;85.35;101124.34;5025285;28;20061;-67
2023/05/15 09:59:34;;;;;;;61.25;37.58;;;;;;;14.49;84.58;101131.31;5008576;28;20045;-67
2023/05/15 10:02:01;;;;;;;60.88;34.78;;;;;;;14.57;84.59;101119.38;5002860;28;20146;-67
2023/05/15 10:04:34;;;;;;;65.28;37.00;;;;;;;15.01;83.13;101131.16;5022074;28;20054;-69
2023/05/15 10:07:02;;;;;;;64.95;37.50;;;;;;;14.79;82.41;101129.44;5001951;28;20055;-68
2023/05/15 10:09:32;;;;;;;62.90;36.75;;;;;;;14.65;82.39;101126.88;4998548;28;20065;-67
2023/05/15 10:11:59;;;;;;;61.70;36.90;;;;;;;14.81;82.81;101129.94;5011560;28;20053;-68
2023/05/15 10:14:28;;;;;;;64.50;36.67;;;;;;;14.96;81.39;101132.16;5022735;28;20053;-67
2023/05/15 10:16:56;;;;;;;61.88;37.50;;;;;;;15.07;80.89;101127.03;5022900;28;20061;-66
2023/05/15 10:19:24;;;;;;;64.25;36.88;;;;;;;15.05;80.23;101134.88;5006266;28;20666;-69
2023/05/15 10:21:52;;;;;;;64.65;37.00;;;;;;;15.03;81.20;101138.00;5011301;28;20046;-67
2023/05/15 10:24:20;;;;;;;63.15;36.42;;;;;;;14.99;81.50;101137.06;5031006;28;20052;-66
2023/05/15 10:26:48;;;;;;;63.03;36.50;;;;;;;14.97;81.17;101138.50;5003145;28;20571;-66
2023/05/15 10:29:17;;;;;;;63.63;37.78;;;;;;;14.86;81.58;101140.00;5014733;28;20046;-66
2023/05/15 10:31:45;;;;;;;61.10;36.67;;;;;;;15.07;81.48;101132.59;5006708;28;20058;-67
2023/05/15 10:34:12;;;;;;;65.63;37.70;;;;;;;15.38;80.08;101127.53;4986942;28;20396;-67
2023/05/15 10:36:40;;;;;;;62.15;37.35;;;;;;;15.45;79.20;101130.63;5020719;28;20073;-67
2023/05/15 10:39:09;;;;;;;64.63;38.20;;;;;;;15.32;79.61;101129.72;5020077;28;20060;-66
2023/05/15 10:41:38;;;;;;;60.75;36.58;;;;;;;15.68;79.08;101120.84;5018163;28;20048;-67
2023/05/15 10:44:05;;;;;;;62.70;38.55;;;;;;;15.66;78.18;101126.72;5001355;28;20452;-65
2023/05/15 10:46:34;;;;;;;63.30;38.22;;;;;;;15.13;80.73;101126.50;5028397;28;20049;-66
2023/05/15 10:49:03;;;;;;;64.18;38.80;;;;;;;15.06;81.78;101120.69;5022150;28;20049;-66
2023/05/15 10:51:32;;;;;;;60.90;36.63;;;;;;;15.23;80.90;101119.78;5004478;28;20052;-66
2023/05/15 10:54:02;;;;;;;55.85;34.55;;;;;;;15.62;78.85;101125.78;4989287;28;20049;-65
2023/05/15 10:56:31;;;;;;;57.10;34.30;;;;;;;15.78;77.54;101112.91;4991430;28;20649;-67
2023/05/15 10:59:08;;;;;;;55.88;35.88;;;;;;;15.85;76.46;101114.34;5005468;28;20056;-65
2023/05/15 11:01:37;;;;;;;59.78;36.13;;;;;;;15.71;77.75;101126.53;5008828;28;20053;-65
2023/05/15 11:04:06;;;;;;;54.73;31.23;;;;;;;15.52;76.38;101131.72;5012341;28;20058;-64
2023/05/15 11:06:35;;;;;;;50.63;32.92;;;;;;;15.61;76.93;101129.72;4990019;28;20053;-65
2023/05/15 11:09:20;;;;;;;48.97;31.98;;;;;;;15.50;76.48;101125.69;5003195;28;20437;-65
2023/05/15 11:11:51;;;;;;;50.45;31.77;;;;;;;15.51;76.93;101120.97;5019136;28;20949;-65
2023/05/15 11:14:18;;;;;;;55.03;35.42;;;;;;;15.12;78.62;101119.34;5016082;28;20085;-66